sensor_id;sensor_type;location;lat;lon;timestamp;P1;durP1;ratioP1;P2;durP2;ratioP2
20232;SDS011;37438;55.674;13.074;2023-05-10T00:02:51;7.78;;;1.58;;
20232;SDS011;37438;55.674;13.074;2023-05-10T00:05:55;3.63;;;1.38;;
20232;SDS011;37438;55.674;13.074;2023-05-10T00:09:00;4.80;;;1.65;;
20232;SDS011;37438;55.674;13.074;2023-05-10T00:12:05;6.88;;;2.58;;
20232;SDS011;37438;55.674;13.074;2023-05-10T00:15:09;4.97;;;1.58;;
20232;SDS011;37438;55.674;13.074;2023-05-10T00:21:19;2.38;;;1.75;;
20232;SDS011;37438;55.674;13.074;2023-05-10T00:27:28;18.48;;;2.67;;
20232;SDS011;37438;55.674;13.074;2023-05-10T00:30:32;4.00;;;2.33;;
20232;SDS011;37438;55.674;13.074;2023-05-10T00:33:38;4.50;;;1.85;;
20232;SDS011;37438;55.674;13.074;2023-05-10T00:39:47;6.03;;;2.30;;
20232;SDS011;37438;55.674;13.074;2023-05-10T00:42:51;6.68;;;2.28;;
20232;SDS011;37438;55.674;13.074;2023-05-10T00:45:56;6.18;;;2.20;;
20232;SDS011;37438;55.674;13.074;2023-05-10T00:49:01;5.35;;;1.95;;
20232;SDS011;37438;55.674;13.074;2023-05-10T00:52:06;7.47;;;1.83;;
20232;SDS011;37438;55.674;13.074;2023-05-10T00:55:10;7.30;;;2.63;;
20232;SDS011;37438;55.674;13.074;2023-05-10T00:58:16;5.00;;;1.70;;
20232;SDS011;37438;55.674;13.074;2023-05-10T01:04:25;5.22;;;2.15;;
20232;SDS011;37438;55.674;13.074;2023-05-10T01:07:30;7.13;;;2.58;;
20232;SDS011;37438;55.674;13.074;2023-05-10T01:10:35;7.85;;;2.38;;
20232;SDS011;37438;55.674;13.074;2023-05-10T01:13:40;4.47;;;2.10;;
20232;SDS011;37438;55.674;13.074;2023-05-10T01:16:47;6.65;;;2.42;;
20232;SDS011;37438;55.674;13.074;2023-05-10T01:19:53;4.32;;;2.10;;
20232;SDS011;37438;55.674;13.074;2023-05-10T01:37:01;4.10;;;1.98;;
20232;SDS011;37438;55.674;13.074;2023-05-10T01:40:26;3.17;;;1.90;;
20232;SDS011;37438;55.674;13.074;2023-05-10T01:44:24;5.93;;;2.35;;
20232;SDS011;37438;55.674;13.074;2023-05-10T01:47:15;5.25;;;2.00;;
20232;SDS011;37438;55.674;13.074;2023-05-10T01:50:50;5.53;;;2.20;;
20232;SDS011;37438;55.674;13.074;2023-05-10T01:53:58;3.92;;;2.17;;
20232;SDS011;37438;55.674;13.074;2023-05-10T01:57:06;8.73;;;2.92;;
20232;SDS011;37438;55.674;13.074;2023-05-10T02:00:13;7.22;;;2.30;;
20232;SDS011;37438;55.674;13.074;2023-05-10T02:03:23;9.10;;;2.92;;
20232;SDS011;37438;55.674;13.074;2023-05-10T02:06:28;4.15;;;2.53;;
20232;SDS011;37438;55.674;13.074;2023-05-10T02:09:34;4.05;;;2.20;;
20232;SDS011;37438;55.674;13.074;2023-05-10T02:12:41;5.78;;;1.90;;
20232;SDS011;37438;55.674;13.074;2023-05-10T02:15:48;3.67;;;2.53;;
20232;SDS011;37438;55.674;13.074;2023-05-10T02:18:54;5.07;;;2.47;;
20232;SDS011;37438;55.674;13.074;2023-05-10T02:22:01;5.22;;;2.28;;
20232;SDS011;37438;55.674;13.074;2023-05-10T02:25:08;9.93;;;2.45;;
20232;SDS011;37438;55.674;13.074;2023-05-10T02:28:15;3.20;;;2.20;;
20232;SDS011;37438;55.674;13.074;2023-05-10T02:31:20;5.43;;;2.20;;
20232;SDS011;37438;55.674;13.074;2023-05-10T02:34:26;4.70;;;2.25;;
20232;SDS011;37438;55.674;13.074;2023-05-10T02:37:31;7.78;;;2.60;;
20232;SDS011;37438;55.674;13.074;2023-05-10T02:40:40;7.38;;;2.10;;
20232;SDS011;37438;55.674;13.074;2023-05-10T02:43:46;6.38;;;2.30;;
20232;SDS011;37438;55.674;13.074;2023-05-10T02:46:54;2.03;;;1.52;;
20232;SDS011;37438;55.674;13.074;2023-05-10T02:49:59;6.97;;;2.10;;
20232;SDS011;37438;55.674;13.074;2023-05-10T02:53:06;4.57;;;2.38;;
20232;SDS011;37438;55.674;13.074;2023-05-10T02:56:20;5.68;;;2.10;;
20232;SDS011;37438;55.674;13.074;2023-05-10T02:59:32;3.28;;;2.15;;
20232;SDS011;37438;55.674;13.074;2023-05-10T03:05:42;4.07;;;2.30;;
20232;SDS011;37438;55.674;13.074;2023-05-10T03:08:46;3.78;;;2.40;;
20232;SDS011;37438;55.674;13.074;2023-05-10T03:12:00;3.20;;;2.05;;
20232;SDS011;37438;55.674;13.074;2023-05-10T03:15:11;5.18;;;2.40;;
20232;SDS011;37438;55.674;13.074;2023-05-10T03:18:33;8.10;;;2.75;;
20232;SDS011;37438;55.674;13.074;2023-05-10T03:21:49;8.93;;;2.88;;
20232;SDS011;37438;55.674;13.074;2023-05-10T03:24:56;4.63;;;2.60;;
20232;SDS011;37438;55.674;13.074;2023-05-10T03:28:04;5.45;;;2.75;;
20232;SDS011;37438;55.674;13.074;2023-05-10T03:31:10;3.63;;;2.45;;
20232;SDS011;37438;55.674;13.074;2023-05-10T03:34:16;7.82;;;2.50;;
20232;SDS011;37438;55.674;13.074;2023-05-10T03:37:21;4.57;;;2.10;;
20232;SDS011;37438;55.674;13.074;2023-05-10T03:40:26;10.70;;;2.10;;
20232;SDS011;37438;55.674;13.074;2023-05-10T03:43:33;7.57;;;2.60;;
20232;SDS011;37438;55.674;13.074;2023-05-10T03:46:38;10.10;;;2.67;;
20232;SDS011;37438;55.674;13.074;2023-05-10T03:49:42;2.72;;;1.77;;
20232;SDS011;37438;55.674;13.074;2023-05-10T03:52:48;5.30;;;2.67;;
20232;SDS011;37438;55.674;13.074;2023-05-10T03:55:54;4.97;;;2.47;;
20232;SDS011;37438;55.674;13.074;2023-05-10T04:02:04;3.72;;;2.33;;
20232;SDS011;37438;55.674;13.074;2023-05-10T04:05:09;4.22;;;2.42;;
20232;SDS011;37438;55.674;13.074;2023-05-10T04:08:14;6.85;;;2.55;;
20232;SDS011;37438;55.674;13.074;2023-05-10T04:11:20;5.60;;;2.58;;
20232;SDS011;37438;55.674;13.074;2023-05-10T04:14:26;5.13;;;2.33;;
20232;SDS011;37438;55.674;13.074;2023-05-10T04:17:30;11.52;;;2.42;;
20232;SDS011;37438;55.674;13.074;2023-05-10T04:20:35;4.03;;;2.25;;
20232;SDS011;37438;55.674;13.074;2023-05-10T04:26:44;4.78;;;2.75;;
20232;SDS011;37438;55.674;13.074;2023-05-10T04:29:49;5.40;;;2.78;;
20232;SDS011;37438;55.674;13.074;2023-05-10T04:32:54;6.18;;;2.90;;
20232;SDS011;37438;55.674;13.074;2023-05-10T04:35:58;10.00;;;2.88;;
20232;SDS011;37438;55.674;13.074;2023-05-10T04:39:04;7.97;;;2.25;;
20232;SDS011;37438;55.674;13.074;2023-05-10T04:42:09;7.72;;;2.72;;
20232;SDS011;37438;55.674;13.074;2023-05-10T04:45:13;14.55;;;3.20;;
20232;SDS011;37438;55.674;13.074;2023-05-10T04:48:20;6.28;;;2.30;;
20232;SDS011;37438;55.674;13.074;2023-05-10T04:51:24;8.82;;;2.22;;
20232;SDS011;37438;55.674;13.074;2023-05-10T04:54:29;6.13;;;2.70;;
20232;SDS011;37438;55.674;13.074;2023-05-10T04:57:33;3.20;;;2.42;;
20232;SDS011;37438;55.674;13.074;2023-05-10T05:00:38;5.75;;;2.78;;
20232;SDS011;37438;55.674;13.074;2023-05-10T05:03:42;7.75;;;2.08;;
20232;SDS011;37438;55.674;13.074;2023-05-10T05:06:47;8.18;;;2.42;;
20232;SDS011;37438;55.674;13.074;2023-05-10T05:09:52;7.70;;;2.67;;
20232;SDS011;37438;55.674;13.074;2023-05-10T05:12:56;7.50;;;2.55;;
20232;SDS011;37438;55.674;13.074;2023-05-10T05:16:01;4.22;;;1.92;;
20232;SDS011;37438;55.674;13.074;2023-05-10T05:19:06;3.65;;;2.17;;
20232;SDS011;37438;55.674;13.074;2023-05-10T05:22:11;10.40;;;4.07;;
20232;SDS011;37438;55.674;13.074;2023-05-10T05:25:15;4.75;;;2.70;;
20232;SDS011;37438;55.674;13.074;2023-05-10T05:28:21;4.40;;;2.47;;
20232;SDS011;37438;55.674;13.074;2023-05-10T05:31:26;7.25;;;2.17;;
20232;SDS011;37438;55.674;13.074;2023-05-10T05:34:30;10.07;;;2.70;;
20232;SDS011;37438;55.674;13.074;2023-05-10T05:37:35;4.18;;;2.30;;
20232;SDS011;37438;55.674;13.074;2023-05-10T05:40:39;4.78;;;2.20;;
20232;SDS011;37438;55.674;13.074;2023-05-10T05:43:44;9.43;;;2.88;;
20232;SDS011;37438;55.674;13.074;2023-05-10T05:46:48;4.47;;;2.70;;
20232;SDS011;37438;55.674;13.074;2023-05-10T05:49:52;4.22;;;2.40;;
20232;SDS011;37438;55.674;13.074;2023-05-10T05:52:57;4.57;;;2.83;;
20232;SDS011;37438;55.674;13.074;2023-05-10T06:02:12;8.20;;;2.22;;
20232;SDS011;37438;55.674;13.074;2023-05-10T06:05:16;6.63;;;2.67;;
20232;SDS011;37438;55.674;13.074;2023-05-10T06:08:21;5.85;;;2.33;;
20232;SDS011;37438;55.674;13.074;2023-05-10T06:11:25;32.03;;;5.28;;
20232;SDS011;37438;55.674;13.074;2023-05-10T06:14:30;7.03;;;3.10;;
20232;SDS011;37438;55.674;13.074;2023-05-10T06:17:34;7.35;;;3.00;;
20232;SDS011;37438;55.674;13.074;2023-05-10T06:20:38;4.25;;;2.53;;
20232;SDS011;37438;55.674;13.074;2023-05-10T06:23:45;8.45;;;2.97;;
20232;SDS011;37438;55.674;13.074;2023-05-10T06:26:49;6.45;;;3.00;;
20232;SDS011;37438;55.674;13.074;2023-05-10T06:29:54;4.35;;;2.63;;
20232;SDS011;37438;55.674;13.074;2023-05-10T06:33:12;5.38;;;2.30;;
20232;SDS011;37438;55.674;13.074;2023-05-10T06:36:16;7.10;;;2.88;;
20232;SDS011;37438;55.674;13.074;2023-05-10T06:39:20;4.38;;;2.60;;
20232;SDS011;37438;55.674;13.074;2023-05-10T06:42:25;7.40;;;2.78;;
20232;SDS011;37438;55.674;13.074;2023-05-10T06:45:30;7.25;;;2.80;;
20232;SDS011;37438;55.674;13.074;2023-05-10T06:48:35;9.45;;;2.85;;
20232;SDS011;37438;55.674;13.074;2023-05-10T06:54:44;4.45;;;2.38;;
20232;SDS011;37438;55.674;13.074;2023-05-10T06:57:49;6.88;;;2.33;;
20232;SDS011;37438;55.674;13.074;2023-05-10T07:00:54;11.18;;;3.05;;
20232;SDS011;37438;55.674;13.074;2023-05-10T07:04:06;5.82;;;2.80;;
20232;SDS011;37438;55.674;13.074;2023-05-10T07:07:11;12.23;;;2.78;;
20232;SDS011;37438;55.674;13.074;2023-05-10T07:10:16;9.27;;;2.95;;
20232;SDS011;37438;55.674;13.074;2023-05-10T07:13:21;7.93;;;3.10;;
20232;SDS011;37438;55.674;13.074;2023-05-10T07:16:25;3.60;;;2.67;;
20232;SDS011;37438;55.674;13.074;2023-05-10T07:19:30;4.22;;;2.63;;
20232;SDS011;37438;55.674;13.074;2023-05-10T07:22:36;5.03;;;2.53;;
20232;SDS011;37438;55.674;13.074;2023-05-10T07:25:40;7.35;;;2.60;;
20232;SDS011;37438;55.674;13.074;2023-05-10T07:28:45;4.85;;;3.05;;
20232;SDS011;37438;55.674;13.074;2023-05-10T07:31:49;6.00;;;3.60;;
20232;SDS011;37438;55.674;13.074;2023-05-10T07:34:53;7.03;;;2.42;;
20232;SDS011;37438;55.674;13.074;2023-05-10T07:37:58;6.38;;;2.60;;
20232;SDS011;37438;55.674;13.074;2023-05-10T07:41:02;9.90;;;3.03;;
20232;SDS011;37438;55.674;13.074;2023-05-10T07:44:06;5.82;;;2.03;;
20232;SDS011;37438;55.674;13.074;2023-05-10T07:47:11;6.00;;;2.10;;
20232;SDS011;37438;55.674;13.074;2023-05-10T07:50:15;11.00;;;3.30;;
20232;SDS011;37438;55.674;13.074;2023-05-10T07:53:19;5.30;;;2.08;;
20232;SDS011;37438;55.674;13.074;2023-05-10T07:56:28;9.98;;;2.67;;
20232;SDS011;37438;55.674;13.074;2023-05-10T07:59:33;7.25;;;2.15;;
20232;SDS011;37438;55.674;13.074;2023-05-10T08:02:38;8.55;;;2.22;;
20232;SDS011;37438;55.674;13.074;2023-05-10T08:08:47;9.93;;;3.57;;
20232;SDS011;37438;55.674;13.074;2023-05-10T08:11:54;7.50;;;2.38;;
20232;SDS011;37438;55.674;13.074;2023-05-10T08:14:59;8.75;;;3.90;;
20232;SDS011;37438;55.674;13.074;2023-05-10T08:18:04;6.45;;;2.75;;
20232;SDS011;37438;55.674;13.074;2023-05-10T08:24:15;3.47;;;2.30;;
20232;SDS011;37438;55.674;13.074;2023-05-10T08:27:19;6.95;;;3.42;;
20232;SDS011;37438;55.674;13.074;2023-05-10T08:30:25;5.10;;;2.88;;
20232;SDS011;37438;55.674;13.074;2023-05-10T08:33:29;10.10;;;2.50;;
20232;SDS011;37438;55.674;13.074;2023-05-10T08:36:33;4.00;;;2.47;;
20232;SDS011;37438;55.674;13.074;2023-05-10T08:39:37;5.25;;;3.08;;
20232;SDS011;37438;55.674;13.074;2023-05-10T08:42:43;8.95;;;3.35;;
20232;SDS011;37438;55.674;13.074;2023-05-10T08:46:02;5.05;;;2.85;;
20232;SDS011;37438;55.674;13.074;2023-05-10T08:49:09;7.95;;;2.15;;
20232;SDS011;37438;55.674;13.074;2023-05-10T08:52:17;5.78;;;2.75;;
20232;SDS011;37438;55.674;13.074;2023-05-10T08:55:23;10.63;;;3.35;;
20232;SDS011;37438;55.674;13.074;2023-05-10T08:58:28;4.30;;;2.40;;
20232;SDS011;37438;55.674;13.074;2023-05-10T09:01:32;7.82;;;3.10;;
20232;SDS011;37438;55.674;13.074;2023-05-10T09:04:40;3.70;;;1.92;;
20232;SDS011;37438;55.674;13.074;2023-05-10T09:07:46;10.70;;;2.78;;
20232;SDS011;37438;55.674;13.074;2023-05-10T09:13:55;6.43;;;2.63;;
20232;SDS011;37438;55.674;13.074;2023-05-10T09:17:00;7.45;;;2.40;;
20232;SDS011;37438;55.674;13.074;2023-05-10T09:20:05;6.85;;;2.05;;
20232;SDS011;37438;55.674;13.074;2023-05-10T09:23:10;5.32;;;2.50;;
20232;SDS011;37438;55.674;13.074;2023-05-10T09:29:19;8.77;;;2.75;;
20232;SDS011;37438;55.674;13.074;2023-05-10T09:35:42;22.88;;;4.32;;
20232;SDS011;37438;55.674;13.074;2023-05-10T09:38:50;4.80;;;2.58;;
20232;SDS011;37438;55.674;13.074;2023-05-10T09:41:57;7.93;;;2.88;;
20232;SDS011;37438;55.674;13.074;2023-05-10T09:45:04;7.75;;;3.40;;
20232;SDS011;37438;55.674;13.074;2023-05-10T09:48:09;3.33;;;2.10;;
20232;SDS011;37438;55.674;13.074;2023-05-10T09:54:24;8.23;;;3.38;;
20232;SDS011;37438;55.674;13.074;2023-05-10T09:57:28;2.53;;;2.13;;
20232;SDS011;37438;55.674;13.074;2023-05-10T10:00:37;4.68;;;1.88;;
20232;SDS011;37438;55.674;13.074;2023-05-10T10:03:55;7.00;;;3.00;;
20232;SDS011;37438;55.674;13.074;2023-05-10T10:07:02;7.85;;;1.90;;
20232;SDS011;37438;55.674;13.074;2023-05-10T10:10:08;10.32;;;2.63;;
20232;SDS011;37438;55.674;13.074;2023-05-10T10:13:16;8.18;;;2.40;;
20232;SDS011;37438;55.674;13.074;2023-05-10T10:16:20;7.07;;;2.38;;
20232;SDS011;37438;55.674;13.074;2023-05-10T10:19:25;5.03;;;2.13;;
20232;SDS011;37438;55.674;13.074;2023-05-10T10:22:30;9.35;;;2.22;;
20232;SDS011;37438;55.674;13.074;2023-05-10T10:25:34;10.60;;;1.95;;
20232;SDS011;37438;55.674;13.074;2023-05-10T10:35:15;4.07;;;1.90;;
20232;SDS011;37438;55.674;13.074;2023-05-10T10:38:20;2.13;;;1.80;;
20232;SDS011;37438;55.674;13.074;2023-05-10T10:44:37;4.38;;;1.25;;
20232;SDS011;37438;55.674;13.074;2023-05-10T10:47:42;5.10;;;2.97;;
20232;SDS011;37438;55.674;13.074;2023-05-10T10:50:55;5.85;;;1.55;;
20232;SDS011;37438;55.674;13.074;2023-05-10T10:54:08;5.75;;;1.90;;
20232;SDS011;37438;55.674;13.074;2023-05-10T10:57:14;4.38;;;1.83;;
20232;SDS011;37438;55.674;13.074;2023-05-10T11:00:28;3.72;;;1.33;;
20232;SDS011;37438;55.674;13.074;2023-05-10T11:03:37;6.30;;;1.45;;
20232;SDS011;37438;55.674;13.074;2023-05-10T11:06:42;6.40;;;1.52;;
20232;SDS011;37438;55.674;13.074;2023-05-10T11:09:47;3.95;;;1.85;;
20232;SDS011;37438;55.674;13.074;2023-05-10T11:15:57;1.70;;;1.30;;
20232;SDS011;37438;55.674;13.074;2023-05-10T11:19:15;5.95;;;2.05;;
20232;SDS011;37438;55.674;13.074;2023-05-10T11:22:21;8.85;;;2.13;;
20232;SDS011;37438;55.674;13.074;2023-05-10T11:25:29;4.05;;;1.83;;
20232;SDS011;37438;55.674;13.074;2023-05-10T11:28:33;3.67;;;1.20;;
20232;SDS011;37438;55.674;13.074;2023-05-10T11:31:42;5.13;;;1.27;;
20232;SDS011;37438;55.674;13.074;2023-05-10T11:34:47;5.55;;;1.73;;
20232;SDS011;37438;55.674;13.074;2023-05-10T11:37:52;4.32;;;1.10;;
20232;SDS011;37438;55.674;13.074;2023-05-10T11:40:57;3.67;;;1.48;;
20232;SDS011;37438;55.674;13.074;2023-05-10T11:44:01;1.73;;;1.17;;
20232;SDS011;37438;55.674;13.074;2023-05-10T11:47:06;5.18;;;1.20;;
20232;SDS011;37438;55.674;13.074;2023-05-10T11:50:11;3.95;;;1.10;;
20232;SDS011;37438;55.674;13.074;2023-05-10T11:53:15;4.55;;;1.90;;
20232;SDS011;37438;55.674;13.074;2023-05-10T11:56:20;9.27;;;1.25;;
20232;SDS011;37438;55.674;13.074;2023-05-10T11:59:25;10.50;;;1.75;;
20232;SDS011;37438;55.674;13.074;2023-05-10T12:02:29;4.93;;;1.65;;
20232;SDS011;37438;55.674;13.074;2023-05-10T12:05:35;2.97;;;1.05;;
20232;SDS011;37438;55.674;13.074;2023-05-10T12:08:43;2.47;;;1.65;;
20232;SDS011;37438;55.674;13.074;2023-05-10T12:11:50;3.28;;;1.15;;
20232;SDS011;37438;55.674;13.074;2023-05-10T12:14:59;7.80;;;1.42;;
20232;SDS011;37438;55.674;13.074;2023-05-10T12:18:08;4.25;;;1.85;;
20232;SDS011;37438;55.674;13.074;2023-05-10T12:21:14;13.93;;;1.77;;
20232;SDS011;37438;55.674;13.074;2023-05-10T12:24:19;8.13;;;1.88;;
20232;SDS011;37438;55.674;13.074;2023-05-10T12:27:25;4.97;;;1.65;;
20232;SDS011;37438;55.674;13.074;2023-05-10T12:30:53;9.50;;;1.48;;
20232;SDS011;37438;55.674;13.074;2023-05-10T12:33:58;9.68;;;1.70;;
20232;SDS011;37438;55.674;13.074;2023-05-10T12:37:03;1.75;;;1.05;;
20232;SDS011;37438;55.674;13.074;2023-05-10T12:40:07;7.32;;;1.55;;
20232;SDS011;37438;55.674;13.074;2023-05-10T12:43:14;5.10;;;1.77;;
20232;SDS011;37438;55.674;13.074;2023-05-10T12:46:18;3.28;;;1.42;;
20232;SDS011;37438;55.674;13.074;2023-05-10T12:49:22;6.38;;;1.45;;
20232;SDS011;37438;55.674;13.074;2023-05-10T12:52:27;6.35;;;1.20;;
20232;SDS011;37438;55.674;13.074;2023-05-10T12:55:32;2.88;;;1.45;;
20232;SDS011;37438;55.674;13.074;2023-05-10T12:58:37;2.83;;;1.52;;
20232;SDS011;37438;55.674;13.074;2023-05-10T13:01:42;1.88;;;1.00;;
20232;SDS011;37438;55.674;13.074;2023-05-10T13:04:47;2.30;;;1.30;;
20232;SDS011;37438;55.674;13.074;2023-05-10T13:07:53;4.68;;;1.30;;
20232;SDS011;37438;55.674;13.074;2023-05-10T13:10:58;6.88;;;1.50;;
20232;SDS011;37438;55.674;13.074;2023-05-10T13:14:03;2.15;;;1.42;;
20232;SDS011;37438;55.674;13.074;2023-05-10T13:17:07;5.15;;;1.17;;
20232;SDS011;37438;55.674;13.074;2023-05-10T13:20:12;8.15;;;1.95;;
20232;SDS011;37438;55.674;13.074;2023-05-10T13:26:20;4.07;;;1.50;;
20232;SDS011;37438;55.674;13.074;2023-05-10T13:29:25;4.00;;;1.00;;
20232;SDS011;37438;55.674;13.074;2023-05-10T13:32:30;3.00;;;1.50;;
20232;SDS011;37438;55.674;13.074;2023-05-10T13:38:38;7.63;;;1.53;;
20232;SDS011;37438;55.674;13.074;2023-05-10T13:41:42;2.75;;;1.38;;
20232;SDS011;37438;55.674;13.074;2023-05-10T13:44:47;11.23;;;2.03;;
20232;SDS011;37438;55.674;13.074;2023-05-10T13:47:51;3.45;;;1.42;;
20232;SDS011;37438;55.674;13.074;2023-05-10T13:54:00;7.28;;;1.30;;
20232;SDS011;37438;55.674;13.074;2023-05-10T13:57:08;1.75;;;1.30;;
20232;SDS011;37438;55.674;13.074;2023-05-10T14:00:12;4.95;;;1.38;;
20232;SDS011;37438;55.674;13.074;2023-05-10T14:03:17;2.88;;;0.88;;
20232;SDS011;37438;55.674;13.074;2023-05-10T14:06:22;4.30;;;1.10;;
20232;SDS011;37438;55.674;13.074;2023-05-10T14:09:26;3.63;;;1.20;;
20232;SDS011;37438;55.674;13.074;2023-05-10T14:12:31;5.05;;;1.80;;
20232;SDS011;37438;55.674;13.074;2023-05-10T14:15:35;1.88;;;1.23;;
20232;SDS011;37438;55.674;13.074;2023-05-10T14:18:40;5.50;;;1.10;;
20232;SDS011;37438;55.674;13.074;2023-05-10T14:21:44;2.60;;;1.00;;
20232;SDS011;37438;55.674;13.074;2023-05-10T14:24:48;1.05;;;0.90;;
20232;SDS011;37438;55.674;13.074;2023-05-10T14:27:54;7.38;;;1.30;;
20232;SDS011;37438;55.674;13.074;2023-05-10T14:30:58;2.90;;;0.98;;
20232;SDS011;37438;55.674;13.074;2023-05-10T14:34:03;2.03;;;1.00;;
20232;SDS011;37438;55.674;13.074;2023-05-10T14:37:09;3.95;;;0.98;;
20232;SDS011;37438;55.674;13.074;2023-05-10T14:40:15;3.72;;;1.33;;
20232;SDS011;37438;55.674;13.074;2023-05-10T14:43:21;1.83;;;1.00;;
20232;SDS011;37438;55.674;13.074;2023-05-10T14:46:26;9.30;;;1.48;;
20232;SDS011;37438;55.674;13.074;2023-05-10T14:49:31;2.70;;;1.05;;
20232;SDS011;37438;55.674;13.074;2023-05-10T14:52:35;6.68;;;1.73;;
20232;SDS011;37438;55.674;13.074;2023-05-10T14:55:40;3.55;;;1.30;;
20232;SDS011;37438;55.674;13.074;2023-05-10T14:58:44;3.63;;;0.93;;
20232;SDS011;37438;55.674;13.074;2023-05-10T15:01:49;1.83;;;1.08;;
20232;SDS011;37438;55.674;13.074;2023-05-10T15:04:54;1.42;;;1.00;;
20232;SDS011;37438;55.674;13.074;2023-05-10T15:07:59;4.68;;;1.00;;
20232;SDS011;37438;55.674;13.074;2023-05-10T15:11:03;3.00;;;1.05;;
20232;SDS011;37438;55.674;13.074;2023-05-10T15:14:08;3.90;;;1.25;;
20232;SDS011;37438;55.674;13.074;2023-05-10T15:17:13;3.42;;;1.10;;
20232;SDS011;37438;55.674;13.074;2023-05-10T15:20:17;1.25;;;1.05;;
20232;SDS011;37438;55.674;13.074;2023-05-10T15:23:22;1.80;;;1.27;;
20232;SDS011;37438;55.674;13.074;2023-05-10T15:26:26;6.07;;;1.70;;
20232;SDS011;37438;55.674;13.074;2023-05-10T15:29:30;5.63;;;1.00;;
20232;SDS011;37438;55.674;13.074;2023-05-10T15:32:36;2.22;;;1.23;;
20232;SDS011;37438;55.674;13.074;2023-05-10T15:35:41;3.33;;;1.10;;
20232;SDS011;37438;55.674;13.074;2023-05-10T15:38:45;3.00;;;1.40;;
20232;SDS011;37438;55.674;13.074;2023-05-10T15:41:50;2.42;;;1.40;;
20232;SDS011;37438;55.674;13.074;2023-05-10T15:44:55;8.25;;;1.00;;
20232;SDS011;37438;55.674;13.074;2023-05-10T15:47:59;3.10;;;1.08;;
20232;SDS011;37438;55.674;13.074;2023-05-10T15:51:04;4.40;;;1.65;;
20232;SDS011;37438;55.674;13.074;2023-05-10T15:54:08;4.78;;;2.20;;
20232;SDS011;37438;55.674;13.074;2023-05-10T15:57:13;9.32;;;1.67;;
20232;SDS011;37438;55.674;13.074;2023-05-10T16:00:17;8.18;;;2.50;;
20232;SDS011;37438;55.674;13.074;2023-05-10T16:03:21;3.08;;;0.95;;
20232;SDS011;37438;55.674;13.074;2023-05-10T16:06:26;3.63;;;1.23;;
20232;SDS011;37438;55.674;13.074;2023-05-10T16:09:30;3.95;;;1.58;;
20232;SDS011;37438;55.674;13.074;2023-05-10T16:12:34;6.25;;;1.20;;
20232;SDS011;37438;55.674;13.074;2023-05-10T16:15:39;3.97;;;0.90;;
20232;SDS011;37438;55.674;13.074;2023-05-10T16:18:44;5.47;;;1.33;;
20232;SDS011;37438;55.674;13.074;2023-05-10T16:21:49;12.02;;;1.88;;
20232;SDS011;37438;55.674;13.074;2023-05-10T16:24:54;1.30;;;1.20;;
20232;SDS011;37438;55.674;13.074;2023-05-10T16:28:00;7.45;;;1.38;;
20232;SDS011;37438;55.674;13.074;2023-05-10T16:31:05;6.00;;;1.45;;
20232;SDS011;37438;55.674;13.074;2023-05-10T16:34:09;4.40;;;1.27;;
20232;SDS011;37438;55.674;13.074;2023-05-10T16:37:14;3.65;;;1.38;;
20232;SDS011;37438;55.674;13.074;2023-05-10T16:40:18;1.75;;;1.30;;
20232;SDS011;37438;55.674;13.074;2023-05-10T16:43:23;6.18;;;1.70;;
20232;SDS011;37438;55.674;13.074;2023-05-10T16:46:28;3.35;;;1.30;;
20232;SDS011;37438;55.674;13.074;2023-05-10T16:49:34;11.30;;;1.92;;
20232;SDS011;37438;55.674;13.074;2023-05-10T16:52:39;6.05;;;2.42;;
20232;SDS011;37438;55.674;13.074;2023-05-10T16:55:44;8.32;;;1.40;;
20232;SDS011;37438;55.674;13.074;2023-05-10T16:58:48;2.00;;;1.15;;
20232;SDS011;37438;55.674;13.074;2023-05-10T17:01:53;2.45;;;1.40;;
20232;SDS011;37438;55.674;13.074;2023-05-10T17:04:58;4.30;;;1.45;;
20232;SDS011;37438;55.674;13.074;2023-05-10T17:08:03;5.55;;;1.58;;
20232;SDS011;37438;55.674;13.074;2023-05-10T17:11:08;2.58;;;1.10;;
20232;SDS011;37438;55.674;13.074;2023-05-10T17:17:17;4.78;;;1.70;;
20232;SDS011;37438;55.674;13.074;2023-05-10T17:20:22;7.13;;;1.40;;
20232;SDS011;37438;55.674;13.074;2023-05-10T17:23:26;1.58;;;1.13;;
20232;SDS011;37438;55.674;13.074;2023-05-10T17:29:35;4.10;;;2.40;;
20232;SDS011;37438;55.674;13.074;2023-05-10T17:32:40;5.35;;;2.03;;
20232;SDS011;37438;55.674;13.074;2023-05-10T17:38:49;1.52;;;1.08;;
20232;SDS011;37438;55.674;13.074;2023-05-10T17:41:54;2.88;;;2.03;;
20232;SDS011;37438;55.674;13.074;2023-05-10T17:44:58;5.15;;;1.58;;
20232;SDS011;37438;55.674;13.074;2023-05-10T17:51:08;8.38;;;1.35;;
20232;SDS011;37438;55.674;13.074;2023-05-10T17:54:14;6.32;;;1.65;;
20232;SDS011;37438;55.674;13.074;2023-05-10T17:57:19;8.98;;;1.60;;
20232;SDS011;37438;55.674;13.074;2023-05-10T18:03:28;1.40;;;1.30;;
20232;SDS011;37438;55.674;13.074;2023-05-10T18:06:35;5.45;;;1.83;;
20232;SDS011;37438;55.674;13.074;2023-05-10T18:09:40;2.90;;;1.05;;
20232;SDS011;37438;55.674;13.074;2023-05-10T18:15:49;2.75;;;1.40;;
20232;SDS011;37438;55.674;13.074;2023-05-10T18:18:55;8.43;;;1.58;;
20232;SDS011;37438;55.674;13.074;2023-05-10T18:22:01;9.75;;;2.40;;
20232;SDS011;37438;55.674;13.074;2023-05-10T18:28:10;1.90;;;1.38;;
20232;SDS011;37438;55.674;13.074;2023-05-10T18:31:14;1.45;;;0.93;;
20232;SDS011;37438;55.674;13.074;2023-05-10T18:34:19;3.65;;;1.58;;
20232;SDS011;37438;55.674;13.074;2023-05-10T18:37:24;6.18;;;1.40;;
20232;SDS011;37438;55.674;13.074;2023-05-10T18:43:33;3.17;;;1.70;;
20232;SDS011;37438;55.674;13.074;2023-05-10T18:46:37;10.63;;;1.95;;
20232;SDS011;37438;55.674;13.074;2023-05-10T18:52:48;2.75;;;1.30;;
20232;SDS011;37438;55.674;13.074;2023-05-10T18:55:56;3.33;;;1.58;;
20232;SDS011;37438;55.674;13.074;2023-05-10T18:59:01;3.40;;;1.75;;
20232;SDS011;37438;55.674;13.074;2023-05-10T19:02:06;6.72;;;1.65;;
20232;SDS011;37438;55.674;13.074;2023-05-10T19:05:12;12.32;;;2.50;;
20232;SDS011;37438;55.674;13.074;2023-05-10T19:08:17;8.43;;;2.25;;
20232;SDS011;37438;55.674;13.074;2023-05-10T19:11:21;6.38;;;1.73;;
20232;SDS011;37438;55.674;13.074;2023-05-10T19:14:26;5.57;;;2.00;;
20232;SDS011;37438;55.674;13.074;2023-05-10T19:17:31;13.13;;;2.55;;
20232;SDS011;37438;55.674;13.074;2023-05-10T19:20:36;6.40;;;2.05;;
20232;SDS011;37438;55.674;13.074;2023-05-10T19:23:43;7.75;;;1.70;;
20232;SDS011;37438;55.674;13.074;2023-05-10T19:26:47;14.65;;;2.45;;
20232;SDS011;37438;55.674;13.074;2023-05-10T19:29:52;15.10;;;2.63;;
20232;SDS011;37438;55.674;13.074;2023-05-10T19:32:58;4.28;;;1.73;;
20232;SDS011;37438;55.674;13.074;2023-05-10T19:36:07;10.18;;;2.08;;
20232;SDS011;37438;55.674;13.074;2023-05-10T19:42:16;2.38;;;1.70;;
20232;SDS011;37438;55.674;13.074;2023-05-10T19:45:22;4.78;;;2.33;;
20232;SDS011;37438;55.674;13.074;2023-05-10T19:48:26;8.65;;;2.33;;
20232;SDS011;37438;55.674;13.074;2023-05-10T19:51:31;4.10;;;1.40;;
20232;SDS011;37438;55.674;13.074;2023-05-10T19:54:36;13.95;;;2.17;;
20232;SDS011;37438;55.674;13.074;2023-05-10T19:57:40;4.28;;;1.67;;
20232;SDS011;37438;55.674;13.074;2023-05-10T20:00:45;6.95;;;1.90;;
20232;SDS011;37438;55.674;13.074;2023-05-10T20:03:49;5.18;;;1.85;;
20232;SDS011;37438;55.674;13.074;2023-05-10T20:06:54;4.43;;;1.95;;
20232;SDS011;37438;55.674;13.074;2023-05-10T20:09:59;2.95;;;1.50;;
20232;SDS011;37438;55.674;13.074;2023-05-10T20:13:03;3.30;;;2.05;;
20232;SDS011;37438;55.674;13.074;2023-05-10T20:16:08;5.65;;;2.33;;
20232;SDS011;37438;55.674;13.074;2023-05-10T20:19:13;9.98;;;2.33;;